createdAt,value
2018-06-29T00:00:10.269Z,0.00
2018-06-29T00:01:10.274Z,0.00
2018-06-29T00:02:10.278Z,0.00
2018-06-29T00:03:10.280Z,0.00
2018-06-29T00:04:10.286Z,0.00
2018-06-29T00:05:10.287Z,0.00
2018-06-29T00:06:10.290Z,0.00
2018-06-29T00:07:10.295Z,0.00
2018-06-29T00:08:10.298Z,0.00
2018-06-29T00:09:10.304Z,0.00
2018-06-29T00:10:10.305Z,0.00
2018-06-29T00:11:10.309Z,0.00
2018-06-29T00:12:10.312Z,0.00
2018-06-29T00:13:10.320Z,0.00
2018-06-29T00:14:10.319Z,0.00
2018-06-29T00:15:10.323Z,0.00
2018-06-29T00:16:10.328Z,0.00
2018-06-29T00:17:10.332Z,0.00
2018-06-29T00:18:10.339Z,0.00
2018-06-29T00:19:10.341Z,0.00
2018-06-29T00:20:10.344Z,0.00
2018-06-29T00:21:10.348Z,0.00
2018-06-29T00:22:10.349Z,0.00
2018-06-29T00:23:10.354Z,0.00
2018-06-29T00:24:10.363Z,0.00
2018-06-29T00:25:10.363Z,0.00
2018-06-29T00:26:10.371Z,0.00
2018-06-29T00:27:10.371Z,0.00
2018-06-29T00:28:10.374Z,0.00
2018-06-29T00:29:10.375Z,0.00
2018-06-29T00:30:10.386Z,0.00
2018-06-29T00:31:10.383Z,0.00
2018-06-29T00:32:10.389Z,0.00
2018-06-29T00:33:10.391Z,0.00
2018-06-29T00:34:10.403Z,0.00
2018-06-29T00:35:10.397Z,0.00
2018-06-29T00:36:10.402Z,0.00
2018-06-29T00:37:10.408Z,0.00
2018-06-29T00:38:10.408Z,0.00
2018-06-29T00:39:10.411Z,0.00
2018-06-29T00:40:10.419Z,0.00
2018-06-29T00:41:10.420Z,0.00
2018-06-29T00:42:10.434Z,0.00
2018-06-29T00:43:10.437Z,0.00
2018-06-29T00:44:10.430Z,0.00
2018-06-29T00:45:10.436Z,0.00
2018-06-29T00:46:10.443Z,0.00
2018-06-29T00:47:10.443Z,0.00
2018-06-29T00:48:10.445Z,0.00
2018-06-29T00:49:10.449Z,0.00
2018-06-29T00:50:10.457Z,0.00
2018-06-29T00:51:10.523Z,0.00
2018-06-29T00:52:10.460Z,0.00
2018-06-29T00:53:10.464Z,0.00
2018-06-29T00:54:10.469Z,0.00
2018-06-29T00:55:10.496Z,0.00
2018-06-29T00:56:10.475Z,0.00
2018-06-29T00:57:10.479Z,0.00
2018-06-29T00:58:10.483Z,0.00
2018-06-29T00:59:10.521Z,0.00
2018-06-29T01:00:10.493Z,0.00
2018-06-29T01:01:10.501Z,0.00
2018-06-29T01:02:10.509Z,0.00
2018-06-29T01:03:10.501Z,0.00
2018-06-29T01:04:10.504Z,0.00
2018-06-29T01:05:10.509Z,0.00
2018-06-29T01:06:10.512Z,0.00
2018-06-29T01:07:10.514Z,0.00
2018-06-29T01:08:10.528Z,0.00
2018-06-29T01:09:10.526Z,0.00
2018-06-29T01:10:10.525Z,0.00
2018-06-29T01:11:10.529Z,0.00
2018-06-29T01:12:10.535Z,0.00
2018-06-29T01:13:10.536Z,0.00
2018-06-29T01:14:10.539Z,0.00
2018-06-29T01:15:10.546Z,0.00
2018-06-29T01:16:10.547Z,0.00
2018-06-29T01:17:10.550Z,0.00
2018-06-29T01:18:10.552Z,0.00
2018-06-29T01:19:10.554Z,0.00
2018-06-29T01:20:10.559Z,0.00
2018-06-29T01:21:10.563Z,0.00
2018-06-29T01:22:10.566Z,0.00
2018-06-29T01:23:10.570Z,0.00
2018-06-29T01:24:10.573Z,0.00
2018-06-29T01:25:10.579Z,0.00
2018-06-29T01:26:10.587Z,0.00
2018-06-29T01:27:10.583Z,0.00
2018-06-29T01:28:10.585Z,0.00
2018-06-29T01:29:10.591Z,0.00
2018-06-29T01:30:10.601Z,0.00
2018-06-29T01:31:10.596Z,0.00
2018-06-29T01:32:10.599Z,0.00
2018-06-29T01:33:10.602Z,0.00
2018-06-29T01:34:10.648Z,0.00
2018-06-29T01:35:10.614Z,0.00
2018-06-29T01:36:10.640Z,0.00
2018-06-29T01:37:10.616Z,0.00
2018-06-29T01:38:10.622Z,0.00
2018-06-29T01:39:10.626Z,0.00
2018-06-29T01:40:10.626Z,0.00
2018-06-29T01:41:10.629Z,0.00
2018-06-29T01:42:10.647Z,0.00
2018-06-29T01:43:10.637Z,0.00
2018-06-29T01:44:10.639Z,0.00
2018-06-29T01:45:10.754Z,0.00
2018-06-29T01:46:10.644Z,0.00
2018-06-29T01:47:10.637Z,0.00
2018-06-29T01:48:10.644Z,0.00
2018-06-29T01:49:10.647Z,0.00
2018-06-29T01:50:10.649Z,0.00
2018-06-29T01:51:10.650Z,0.00
2018-06-29T01:52:10.699Z,0.00
2018-06-29T01:53:10.657Z,0.00
2018-06-29T01:54:10.659Z,0.00
2018-06-29T01:55:10.666Z,0.00
2018-06-29T01:56:10.668Z,0.00
2018-06-29T01:57:10.671Z,0.00
2018-06-29T01:58:10.677Z,0.00
2018-06-29T01:59:10.677Z,0.00
2018-06-29T02:00:10.680Z,0.00
2018-06-29T02:01:10.695Z,0.00
2018-06-29T02:02:10.687Z,0.00
2018-06-29T02:03:10.691Z,0.00
2018-06-29T02:04:10.694Z,0.00
2018-06-29T02:05:10.697Z,0.00
2018-06-29T02:06:10.701Z,0.00
2018-06-29T02:07:10.703Z,0.00
2018-06-29T02:08:10.709Z,0.00
2018-06-29T02:09:10.720Z,0.00
2018-06-29T02:10:10.716Z,0.00
2018-06-29T02:11:10.729Z,0.00
2018-06-29T02:12:10.721Z,0.00
2018-06-29T02:13:10.724Z,0.00
2018-06-29T02:14:10.729Z,0.00
2018-06-29T02:15:10.730Z,0.00
2018-06-29T02:16:10.732Z,0.00
2018-06-29T02:17:10.738Z,0.00
2018-06-29T02:18:10.744Z,0.00
2018-06-29T02:19:10.743Z,0.00
2018-06-29T02:20:10.750Z,0.00
2018-06-29T02:21:10.750Z,0.00
2018-06-29T02:22:10.753Z,0.00
2018-06-29T02:23:10.813Z,0.00
2018-06-29T02:24:10.760Z,0.00
2018-06-29T02:25:10.766Z,0.00
2018-06-29T02:26:10.769Z,0.00
2018-06-29T02:27:10.769Z,0.00
2018-06-29T02:28:10.773Z,0.00
2018-06-29T02:29:10.808Z,0.00
2018-06-29T02:30:10.779Z,0.00
2018-06-29T02:31:10.796Z,0.00
2018-06-29T02:32:10.785Z,0.00
2018-06-29T02:33:10.790Z,0.00
2018-06-29T02:34:10.792Z,0.00
2018-06-29T02:35:10.796Z,0.00
2018-06-29T02:36:10.799Z,0.00
2018-06-29T02:37:10.804Z,0.00
2018-06-29T02:38:10.806Z,0.00
2018-06-29T02:39:10.808Z,0.00
2018-06-29T02:40:10.813Z,0.00
2018-06-29T02:41:10.818Z,0.00
2018-06-29T02:42:12.574Z,0.00
2018-06-29T02:43:10.827Z,0.00
2018-06-29T02:44:10.830Z,0.00
2018-06-29T02:45:10.847Z,0.00
2018-06-29T02:46:10.829Z,0.00
2018-06-29T02:47:10.842Z,0.00
2018-06-29T02:48:10.841Z,0.00
2018-06-29T02:49:10.856Z,0.00
2018-06-29T02:50:10.841Z,0.00
2018-06-29T02:51:10.846Z,0.00
2018-06-29T02:52:10.850Z,0.00
2018-06-29T02:53:10.854Z,0.00
2018-06-29T02:54:10.855Z,0.00
2018-06-29T02:55:10.860Z,0.00
2018-06-29T02:56:10.861Z,0.00
2018-06-29T02:57:10.868Z,0.00
2018-06-29T02:58:10.867Z,0.00
2018-06-29T02:59:10.871Z,0.00
2018-06-29T03:00:10.875Z,0.00
2018-06-29T03:01:10.878Z,0.00
2018-06-29T03:02:10.882Z,0.00
2018-06-29T03:03:10.883Z,0.00
2018-06-29T03:04:10.887Z,0.00
2018-06-29T03:05:10.907Z,0.00
2018-06-29T03:06:10.892Z,0.00
2018-06-29T03:07:10.896Z,0.00
2018-06-29T03:08:10.897Z,0.00
2018-06-29T03:09:10.902Z,0.00
2018-06-29T03:10:10.910Z,0.00
2018-06-29T03:11:10.907Z,0.00
2018-06-29T03:12:10.910Z,0.00
2018-06-29T03:13:10.915Z,0.00
2018-06-29T03:14:10.916Z,5.63
2018-06-29T03:15:10.926Z,5.63
2018-06-29T03:16:10.921Z,5.63
2018-06-29T03:17:10.925Z,5.63
2018-06-29T03:18:38.572Z,5.63
2018-06-29T03:19:10.933Z,5.63
2018-06-29T03:20:10.934Z,5.63
2018-06-29T03:21:10.940Z,5.63
2018-06-29T03:22:10.939Z,5.63
2018-06-29T03:23:10.942Z,5.63
2018-06-29T03:24:10.946Z,5.63
2018-06-29T03:25:10.953Z,5.63
2018-06-29T03:26:10.950Z,5.63
2018-06-29T03:27:10.953Z,5.63
2018-06-29T03:28:10.955Z,5.63
2018-06-29T03:29:10.958Z,5.63
2018-06-29T03:30:10.961Z,5.63
2018-06-29T03:31:10.966Z,11.25
2018-06-29T03:32:10.973Z,11.25
2018-06-29T03:33:10.970Z,11.25
2018-06-29T03:34:10.971Z,11.25
2018-06-29T03:35:10.974Z,11.25
2018-06-29T03:36:10.983Z,11.25
2018-06-29T03:37:10.980Z,11.25
2018-06-29T03:38:10.982Z,11.25
2018-06-29T03:39:10.985Z,11.25
2018-06-29T03:40:11.002Z,11.25
2018-06-29T03:41:10.994Z,11.25
2018-06-29T03:42:10.995Z,11.25
2018-06-29T03:43:10.994Z,11.25
2018-06-29T03:44:10.997Z,11.25
2018-06-29T03:45:11.001Z,11.25
2018-06-29T03:46:11.002Z,11.25
2018-06-29T03:47:11.009Z,11.25
2018-06-29T03:48:11.018Z,11.25
2018-06-29T03:49:11.012Z,11.25
2018-06-29T03:50:11.015Z,11.25
2018-06-29T03:51:11.016Z,16.88
2018-06-29T03:52:11.019Z,16.88
2018-06-29T03:53:11.024Z,16.88
2018-06-29T03:54:11.026Z,16.88
2018-06-29T03:55:11.027Z,16.88
2018-06-29T03:56:11.033Z,16.88
2018-06-29T03:57:11.032Z,16.88
2018-06-29T03:58:11.034Z,16.88
2018-06-29T03:59:11.039Z,16.88
2018-06-29T04:00:11.042Z,16.88
2018-06-29T04:01:11.046Z,16.88
2018-06-29T04:02:11.045Z,16.88
2018-06-29T04:03:11.094Z,16.88
2018-06-29T04:04:11.050Z,16.88
2018-06-29T04:05:11.054Z,16.88
2018-06-29T04:06:11.056Z,16.88
2018-06-29T04:07:11.057Z,22.50
2018-06-29T04:08:11.060Z,22.50
2018-06-29T04:09:11.062Z,22.50
2018-06-29T04:10:11.065Z,22.50
2018-06-29T04:11:11.069Z,22.50
2018-06-29T04:12:11.069Z,22.50
2018-06-29T04:13:11.081Z,22.50
2018-06-29T04:14:11.075Z,28.13
2018-06-29T04:15:11.078Z,28.13
2018-06-29T04:16:11.090Z,28.13
2018-06-29T04:17:11.087Z,28.13
2018-06-29T04:18:11.085Z,28.13
2018-06-29T04:19:11.089Z,33.75
2018-06-29T04:20:11.094Z,33.75
2018-06-29T04:21:11.094Z,39.38
2018-06-29T04:22:11.101Z,45.00
2018-06-29T04:23:11.099Z,50.63
2018-06-29T04:24:11.104Z,56.25
2018-06-29T04:25:11.112Z,56.25
2018-06-29T04:26:11.108Z,56.25
2018-06-29T04:27:11.111Z,56.25
2018-06-29T04:28:11.113Z,56.25
2018-06-29T04:29:11.116Z,56.25
2018-06-29T04:30:11.118Z,56.25
2018-06-29T04:31:11.122Z,56.25
2018-06-29T04:32:11.148Z,56.25
2018-06-29T04:33:11.125Z,56.25
2018-06-29T04:34:11.129Z,50.63
2018-06-29T04:35:11.131Z,50.63
2018-06-29T04:36:11.138Z,45.00
2018-06-29T04:37:11.137Z,45.00
2018-06-29T04:38:11.138Z,50.63
2018-06-29T04:39:11.143Z,50.63
2018-06-29T04:40:11.146Z,50.63
2018-06-29T04:41:11.148Z,56.25
2018-06-29T04:42:11.149Z,61.88
2018-06-29T04:43:11.152Z,61.88
2018-06-29T04:44:11.157Z,90.00
2018-06-29T04:45:11.160Z,67.50
2018-06-29T04:46:11.164Z,67.50
2018-06-29T04:47:11.175Z,67.50
2018-06-29T04:48:11.167Z,73.13
2018-06-29T04:49:11.171Z,78.75
2018-06-29T04:50:11.195Z,78.75
2018-06-29T04:51:11.177Z,78.75
2018-06-29T04:52:11.178Z,78.75
2018-06-29T04:53:11.184Z,78.75
2018-06-29T04:54:11.185Z,78.75
2018-06-29T04:55:11.188Z,73.13
2018-06-29T04:56:11.192Z,73.13
2018-06-29T04:57:11.192Z,73.13
2018-06-29T04:58:11.195Z,73.13
2018-06-29T04:59:11.228Z,78.75
2018-06-29T05:00:11.211Z,78.75
2018-06-29T05:01:11.207Z,78.75
2018-06-29T05:02:11.208Z,78.75
2018-06-29T05:03:11.209Z,78.75
2018-06-29T05:04:11.212Z,78.75
2018-06-29T05:05:11.215Z,73.13
2018-06-29T05:06:11.219Z,67.50
2018-06-29T05:07:11.223Z,61.88
2018-06-29T05:08:11.283Z,67.50
2018-06-29T05:09:11.226Z,61.88
2018-06-29T05:10:11.235Z,61.88
2018-06-29T05:11:11.230Z,61.88
2018-06-29T05:12:11.236Z,61.88
2018-06-29T05:13:11.251Z,61.88
2018-06-29T05:14:11.243Z,61.88
2018-06-29T05:15:11.242Z,61.88
2018-06-29T05:16:11.246Z,67.50
2018-06-29T05:17:11.252Z,73.13
2018-06-29T05:18:11.251Z,78.75
2018-06-29T05:19:11.253Z,101.25
2018-06-29T05:20:11.258Z,292.50
2018-06-29T05:21:11.259Z,523.13
2018-06-29T05:22:11.264Z,596.25
2018-06-29T05:23:11.266Z,416.25
2018-06-29T05:24:11.269Z,326.25
2018-06-29T05:25:11.273Z,337.50
2018-06-29T05:26:11.276Z,365.63
2018-06-29T05:27:11.316Z,416.25
2018-06-29T05:28:11.332Z,326.25
2018-06-29T05:29:11.346Z,281.25
2018-06-29T05:30:11.343Z,264.38
2018-06-29T05:31:11.295Z,264.38
2018-06-29T05:32:11.298Z,253.13
2018-06-29T05:33:11.307Z,286.88
2018-06-29T05:34:11.310Z,427.50
2018-06-29T05:35:11.312Z,635.63
2018-06-29T05:36:11.318Z,1029.38
2018-06-29T05:37:11.935Z,933.75
2018-06-29T05:38:11.326Z,545.63
2018-06-29T05:39:11.336Z,601.88
2018-06-29T05:40:11.353Z,540.00
2018-06-29T05:41:11.338Z,354.38
2018-06-29T05:42:11.346Z,275.63
2018-06-29T05:43:11.350Z,270.00
2018-06-29T05:44:11.352Z,270.00
2018-06-29T05:45:11.359Z,270.00
2018-06-29T05:46:11.367Z,275.63
2018-06-29T05:47:11.368Z,281.25
2018-06-29T05:48:11.372Z,275.63
2018-06-29T05:49:11.427Z,275.63
2018-06-29T05:50:11.382Z,275.63
2018-06-29T05:51:11.389Z,275.63
2018-06-29T05:52:11.395Z,281.25
2018-06-29T05:53:11.397Z,281.25
2018-06-29T05:54:11.399Z,286.88
2018-06-29T05:55:11.410Z,286.88
2018-06-29T05:56:11.414Z,315.00
2018-06-29T05:57:11.415Z,399.38
2018-06-29T05:58:11.418Z,455.63
2018-06-29T05:59:11.425Z,455.63
2018-06-29T06:00:11.429Z,455.63
2018-06-29T06:01:11.438Z,393.75
2018-06-29T06:02:11.444Z,315.00
2018-06-29T06:03:11.443Z,286.88
2018-06-29T06:04:11.487Z,286.88
2018-06-29T06:05:11.453Z,286.88
2018-06-29T06:06:11.457Z,292.50
2018-06-29T06:07:11.468Z,286.88
2018-06-29T06:08:11.466Z,286.88
2018-06-29T06:09:11.469Z,281.25
2018-06-29T06:10:11.532Z,281.25
2018-06-29T06:11:11.484Z,281.25
2018-06-29T06:12:11.482Z,281.25
2018-06-29T06:13:11.492Z,281.25
2018-06-29T06:14:11.493Z,292.50
2018-06-29T06:15:11.523Z,450.00
2018-06-29T06:16:11.536Z,601.88
2018-06-29T06:17:11.518Z,534.38
2018-06-29T06:18:11.511Z,438.75
2018-06-29T06:19:11.515Z,399.38
2018-06-29T06:20:11.521Z,472.50
2018-06-29T06:21:11.530Z,455.63
2018-06-29T06:22:11.529Z,320.63
2018-06-29T06:23:11.538Z,281.25
2018-06-29T06:24:11.542Z,281.25
2018-06-29T06:25:11.556Z,275.63
2018-06-29T06:26:11.546Z,275.63
2018-06-29T06:27:11.552Z,275.63
2018-06-29T06:28:11.571Z,275.63
2018-06-29T06:29:11.560Z,264.38
2018-06-29T06:30:11.565Z,264.38
2018-06-29T06:31:11.570Z,264.38
2018-06-29T06:32:11.673Z,258.75
2018-06-29T06:33:12.667Z,258.75
2018-06-29T06:34:12.590Z,258.75
2018-06-29T06:35:11.642Z,253.13
2018-06-29T06:36:11.591Z,253.13
2018-06-29T06:37:12.676Z,247.50
2018-06-29T06:38:12.656Z,247.50
2018-06-29T06:39:12.588Z,241.88
2018-06-29T06:40:12.691Z,241.88
2018-06-29T06:41:12.572Z,241.88
2018-06-29T06:42:12.606Z,236.25
2018-06-29T06:43:12.632Z,236.25
2018-06-29T06:44:12.608Z,236.25
2018-06-29T06:45:11.737Z,236.25
2018-06-29T06:46:11.796Z,230.63
2018-06-29T06:47:12.650Z,230.63
2018-06-29T06:48:11.765Z,225.00
2018-06-29T06:49:11.750Z,225.00
2018-06-29T06:50:11.850Z,219.38
2018-06-29T06:51:11.876Z,219.38
2018-06-29T06:52:13.369Z,208.13
2018-06-29T06:53:12.613Z,208.13
2018-06-29T06:54:12.700Z,208.13
2018-06-29T06:55:11.764Z,202.50
2018-06-29T06:56:13.832Z,264.38
2018-06-29T06:57:12.664Z,196.88
2018-06-29T06:58:11.916Z,196.88
2018-06-29T06:59:11.765Z,185.63
2018-06-29T07:00:11.993Z,185.63
2018-06-29T07:01:11.741Z,185.63
2018-06-29T07:02:12.604Z,180.00
2018-06-29T07:03:12.643Z,185.63
2018-06-29T07:04:12.622Z,157.50
2018-06-29T07:05:13.102Z,151.88
2018-06-29T07:06:12.660Z,135.00
2018-06-29T07:07:11.857Z,135.00
2018-06-29T07:08:12.614Z,112.50
2018-06-29T07:09:12.633Z,135.00
2018-06-29T07:10:12.634Z,106.88
2018-06-29T07:11:12.634Z,101.25
2018-06-29T07:12:12.599Z,95.63
2018-06-29T07:13:12.648Z,95.63
2018-06-29T07:14:12.587Z,90.00
2018-06-29T07:15:12.586Z,90.00
2018-06-29T07:16:13.098Z,84.38
2018-06-29T07:17:12.597Z,84.38
2018-06-29T07:18:12.710Z,84.38
2018-06-29T07:19:13.215Z,84.38
2018-06-29T07:20:12.776Z,84.38
2018-06-29T07:21:12.596Z,84.38
2018-06-29T07:22:13.169Z,84.38
2018-06-29T07:23:12.114Z,84.38
2018-06-29T07:24:12.574Z,78.75
2018-06-29T07:25:11.837Z,78.75
2018-06-29T07:26:12.000Z,78.75
2018-06-29T07:27:11.809Z,78.75
2018-06-29T07:28:11.805Z,78.75
2018-06-29T07:29:11.806Z,78.75
2018-06-29T07:30:11.810Z,78.75
2018-06-29T07:31:11.848Z,78.75
2018-06-29T07:32:12.268Z,78.75
2018-06-29T07:33:12.181Z,78.75
2018-06-29T07:34:13.229Z,78.75
2018-06-29T07:35:12.292Z,78.75
2018-06-29T07:36:12.745Z,78.75
2018-06-29T07:37:13.428Z,78.75
2018-06-29T07:38:14.736Z,78.75
2018-06-29T07:39:12.724Z,78.75
2018-06-29T07:40:11.910Z,78.75
2018-06-29T07:41:12.241Z,78.75
2018-06-29T07:42:12.771Z,78.75
2018-06-29T07:43:12.288Z,78.75
2018-06-29T07:44:11.959Z,78.75
2018-06-29T07:45:11.917Z,78.75
2018-06-29T07:46:12.683Z,78.75
2018-06-29T07:47:11.871Z,84.38
2018-06-29T07:48:11.975Z,84.38
2018-06-29T07:49:11.941Z,84.38
2018-06-29T07:50:11.890Z,84.38
2018-06-29T07:51:11.896Z,84.38
2018-06-29T07:52:12.026Z,84.38
2018-06-29T07:53:12.593Z,84.38
2018-06-29T07:54:11.922Z,84.38
2018-06-29T07:55:12.234Z,84.38
2018-06-29T07:56:12.012Z,78.75
2018-06-29T07:57:11.927Z,78.75
2018-06-29T07:58:12.005Z,78.75
2018-06-29T08:00:12.051Z,73.13
2018-06-29T08:01:11.930Z,78.75
2018-06-29T08:02:12.854Z,73.13
2018-06-29T08:03:11.985Z,73.13
2018-06-29T08:04:11.952Z,78.75
2018-06-29T08:05:12.179Z,73.13
2018-06-29T08:06:12.018Z,73.13
2018-06-29T08:07:11.945Z,73.13
2018-06-29T08:08:11.951Z,78.75
2018-06-29T08:09:11.964Z,78.75
2018-06-29T08:10:12.005Z,78.75
2018-06-29T08:11:11.961Z,78.75
2018-06-29T08:12:12.046Z,78.75
2018-06-29T08:13:12.101Z,78.75
2018-06-29T08:14:11.985Z,78.75
2018-06-29T08:15:12.031Z,78.75
2018-06-29T08:16:12.033Z,78.75
2018-06-29T08:17:12.335Z,78.75
2018-06-29T08:18:12.025Z,78.75
2018-06-29T08:19:12.001Z,78.75
2018-06-29T08:20:12.183Z,78.75
2018-06-29T08:21:12.139Z,84.38
2018-06-29T08:22:12.006Z,84.38
2018-06-29T08:23:12.189Z,90.00
2018-06-29T08:24:12.143Z,90.00
2018-06-29T08:25:12.041Z,90.00
2018-06-29T08:26:12.029Z,84.38
2018-06-29T08:27:12.026Z,84.38
2018-06-29T08:28:12.042Z,90.00
2018-06-29T08:29:12.122Z,90.00
2018-06-29T08:30:12.101Z,90.00
2018-06-29T08:31:12.049Z,101.25
2018-06-29T08:32:12.108Z,157.50
2018-06-29T08:33:12.045Z,230.63
2018-06-29T08:34:13.176Z,236.25
2018-06-29T08:35:12.288Z,230.63
2018-06-29T08:36:12.057Z,241.88
2018-06-29T08:37:12.061Z,208.13
2018-06-29T08:38:12.064Z,196.88
2018-06-29T08:39:12.071Z,264.38
2018-06-29T08:40:12.098Z,298.13
2018-06-29T08:41:12.080Z,309.38
2018-06-29T08:42:12.086Z,315.00
2018-06-29T08:43:12.089Z,331.88
2018-06-29T08:44:12.135Z,337.50
2018-06-29T08:45:12.102Z,343.13
2018-06-29T08:46:12.250Z,354.38
2018-06-29T08:47:12.127Z,360.00
2018-06-29T08:48:12.119Z,365.63
2018-06-29T08:49:12.125Z,371.25
2018-06-29T08:50:12.140Z,382.50
2018-06-29T08:51:12.139Z,393.75
2018-06-29T08:52:12.155Z,405.00
2018-06-29T08:53:12.264Z,405.00
2018-06-29T08:54:12.161Z,416.25
2018-06-29T08:55:12.188Z,421.88
2018-06-29T08:56:12.175Z,433.13
2018-06-29T08:57:12.181Z,444.38
2018-06-29T08:58:12.187Z,455.63
2018-06-29T08:59:12.225Z,466.88
2018-06-29T09:00:12.205Z,472.50
2018-06-29T09:01:12.266Z,489.38
2018-06-29T09:02:12.241Z,500.63
2018-06-29T09:03:12.230Z,511.88
2018-06-29T09:04:27.324Z,523.13
2018-06-29T09:05:12.245Z,534.38
2018-06-29T09:06:12.271Z,545.63
2018-06-29T09:07:12.265Z,556.88
2018-06-29T09:08:12.341Z,573.75
2018-06-29T09:09:12.282Z,590.63
2018-06-29T09:10:12.549Z,596.25
2018-06-29T09:11:12.799Z,607.50
2018-06-29T09:12:15.202Z,624.38
2018-06-29T09:13:12.451Z,630.00
2018-06-29T09:14:13.418Z,641.25
2018-06-29T09:15:12.458Z,658.13
2018-06-29T09:16:12.344Z,658.13
2018-06-29T09:17:12.419Z,686.25
2018-06-29T09:18:12.361Z,691.88
2018-06-29T09:19:12.507Z,703.13
2018-06-29T09:20:12.381Z,725.63
2018-06-29T09:21:12.387Z,731.25
2018-06-29T09:22:12.395Z,736.88
2018-06-29T09:23:12.406Z,753.75
2018-06-29T09:24:12.526Z,765.00
2018-06-29T09:25:12.424Z,781.88
2018-06-29T09:26:13.208Z,798.75
2018-06-29T09:27:12.446Z,810.00
2018-06-29T09:28:12.781Z,826.88
2018-06-29T09:29:12.468Z,832.50
2018-06-29T09:30:12.481Z,849.38
2018-06-29T09:31:12.485Z,871.88
2018-06-29T09:32:13.391Z,883.13
2018-06-29T09:33:12.506Z,894.38
2018-06-29T09:34:12.567Z,905.63
2018-06-29T09:35:12.525Z,916.88
2018-06-29T09:36:12.537Z,922.50
2018-06-29T09:37:12.548Z,933.75
2018-06-29T09:38:12.555Z,945.00
2018-06-29T09:39:12.567Z,956.25
2018-06-29T09:40:12.579Z,967.50
2018-06-29T09:41:12.590Z,978.75
2018-06-29T09:42:12.598Z,995.63
2018-06-29T09:43:12.615Z,1006.88
2018-06-29T09:44:12.622Z,1018.13
2018-06-29T09:45:12.656Z,1018.13
2018-06-29T09:46:12.646Z,1029.38
2018-06-29T09:47:12.657Z,1046.25
2018-06-29T09:48:12.714Z,1051.88
2018-06-29T09:49:12.685Z,1068.75
2018-06-29T09:50:12.694Z,1074.38
2018-06-29T09:51:12.705Z,1085.63
2018-06-29T09:52:12.718Z,1102.50
2018-06-29T09:53:12.728Z,1125.00
2018-06-29T09:54:12.739Z,1141.88
2018-06-29T09:55:12.757Z,1158.75
2018-06-29T09:56:12.766Z,1164.38
2018-06-29T09:57:12.780Z,1170.00
2018-06-29T09:58:12.845Z,1181.25
2018-06-29T09:59:12.806Z,1192.50
2018-06-29T10:00:12.815Z,1203.75
2018-06-29T10:01:12.861Z,1220.63
2018-06-29T10:02:12.837Z,1220.63
2018-06-29T10:03:12.852Z,1220.63
2018-06-29T10:04:12.871Z,1226.25
2018-06-29T10:05:12.876Z,1237.50
2018-06-29T10:06:13.738Z,1231.88
2018-06-29T10:07:12.906Z,1220.63
2018-06-29T10:08:12.916Z,1220.63
2018-06-29T10:09:13.411Z,1220.63
2018-06-29T10:10:12.963Z,1243.13
2018-06-29T10:11:12.955Z,1243.13
2018-06-29T10:12:13.062Z,1231.88
2018-06-29T10:13:13.133Z,1254.38
2018-06-29T10:14:13.059Z,1276.88
2018-06-29T10:15:13.008Z,1299.38
2018-06-29T10:16:13.023Z,1321.88
2018-06-29T10:17:13.038Z,1338.75
2018-06-29T10:18:13.051Z,1361.25
2018-06-29T10:19:13.076Z,1383.75
2018-06-29T10:20:13.139Z,1383.75
2018-06-29T10:21:13.095Z,1400.63
2018-06-29T10:22:13.212Z,1389.38
2018-06-29T10:23:13.194Z,1395.00
2018-06-29T10:24:13.148Z,1389.38
2018-06-29T10:25:13.226Z,1389.38
2018-06-29T10:26:13.265Z,1395.00
2018-06-29T10:27:13.177Z,1372.50
2018-06-29T10:28:13.317Z,1361.25
2018-06-29T10:29:13.220Z,1355.63
2018-06-29T10:30:13.220Z,1372.50
2018-06-29T10:31:13.233Z,1383.75
2018-06-29T10:32:13.248Z,1406.25
2018-06-29T10:33:13.270Z,1428.75
2018-06-29T10:34:13.286Z,1445.63
2018-06-29T10:35:13.293Z,1473.75
2018-06-29T10:36:13.307Z,1496.25
2018-06-29T10:37:13.323Z,1518.75
2018-06-29T10:38:13.331Z,1518.75
2018-06-29T10:39:13.348Z,1524.38
2018-06-29T10:40:13.367Z,1524.38
2018-06-29T10:41:13.380Z,1535.63
2018-06-29T10:42:13.393Z,1524.38
2018-06-29T10:43:13.409Z,1518.75
2018-06-29T10:44:13.426Z,1546.88
2018-06-29T10:45:13.442Z,1563.75
2018-06-29T10:46:13.453Z,1563.75
2018-06-29T10:47:13.472Z,1586.25
2018-06-29T10:48:13.483Z,1586.25
2018-06-29T10:49:13.512Z,1608.75
2018-06-29T10:50:13.526Z,1620.00
2018-06-29T10:51:13.548Z,1631.25
2018-06-29T10:52:13.553Z,1631.25
2018-06-29T10:53:13.563Z,1653.75
2018-06-29T10:54:13.687Z,1670.63
2018-06-29T10:55:14.365Z,1676.25
2018-06-29T10:56:13.612Z,1693.13
2018-06-29T10:57:13.626Z,1710.00
2018-06-29T10:58:13.639Z,1721.25
2018-06-29T10:59:13.657Z,1704.38
2018-06-29T11:00:13.673Z,1715.63
2018-06-29T11:01:13.707Z,1704.38
2018-06-29T11:02:13.707Z,1704.38
2018-06-29T11:03:13.741Z,1698.75
2018-06-29T11:04:13.738Z,1693.13
2018-06-29T11:05:14.005Z,1698.75
2018-06-29T11:06:13.780Z,1715.63
2018-06-29T11:07:14.176Z,1738.13
2018-06-29T11:08:13.832Z,1749.38
2018-06-29T11:09:13.817Z,1771.88
2018-06-29T11:10:14.806Z,1788.75
2018-06-29T11:11:13.862Z,1783.13
2018-06-29T11:12:13.866Z,1800.00
2018-06-29T11:13:13.897Z,1800.00
2018-06-29T11:14:13.897Z,1800.00
2018-06-29T11:15:14.153Z,1800.00
2018-06-29T11:16:13.929Z,1800.00
2018-06-29T11:17:13.945Z,1805.63
2018-06-29T11:18:13.962Z,1816.88
2018-06-29T11:19:13.980Z,1822.50
2018-06-29T11:20:13.994Z,1828.13
2018-06-29T11:21:14.010Z,1828.13
2018-06-29T11:22:14.039Z,1839.38
2018-06-29T11:23:14.038Z,1850.63
2018-06-29T11:24:14.056Z,1873.13
2018-06-29T11:25:14.069Z,1890.00
2018-06-29T11:26:14.122Z,1878.75
2018-06-29T11:27:14.104Z,1878.75
2018-06-29T11:28:14.114Z,1873.13
2018-06-29T11:29:14.341Z,1890.00
2018-06-29T11:30:14.215Z,1890.00
2018-06-29T11:31:14.178Z,1873.13
2018-06-29T11:32:14.177Z,1884.38
2018-06-29T11:33:14.192Z,1901.25
2018-06-29T11:34:14.215Z,1901.25
2018-06-29T11:35:14.221Z,1901.25
2018-06-29T11:36:14.247Z,1890.00
2018-06-29T11:37:14.254Z,1906.88
2018-06-29T11:38:14.268Z,1906.88
2018-06-29T11:39:14.283Z,1906.88
2018-06-29T11:40:14.304Z,1878.75
2018-06-29T11:41:14.321Z,1867.50
2018-06-29T11:42:14.335Z,1856.25
2018-06-29T11:43:14.369Z,1845.00
2018-06-29T11:44:14.395Z,1816.88
2018-06-29T11:45:14.383Z,1816.88
2018-06-29T11:46:14.398Z,1816.88
2018-06-29T11:47:14.581Z,1822.50
2018-06-29T11:48:14.448Z,1861.88
2018-06-29T11:49:14.451Z,1861.88
2018-06-29T11:50:14.465Z,1867.50
2018-06-29T11:51:14.483Z,1856.25
2018-06-29T11:52:14.501Z,1861.88
2018-06-29T11:53:16.753Z,1839.38
2018-06-29T11:54:14.548Z,1828.13
2018-06-29T11:55:14.576Z,1828.13
2018-06-29T11:56:14.573Z,1845.00
2018-06-29T11:57:14.595Z,1861.88
2018-06-29T11:58:14.610Z,1878.75
2018-06-29T11:59:14.628Z,1895.63
2018-06-29T12:00:14.645Z,1918.13
2018-06-29T12:01:14.663Z,1935.00
2018-06-29T12:02:14.682Z,1940.63
2018-06-29T12:03:14.698Z,1946.25
2018-06-29T12:04:14.718Z,1968.75
2018-06-29T12:05:14.743Z,1963.13
2018-06-29T12:06:14.762Z,1957.50
2018-06-29T12:07:14.823Z,1963.13
2018-06-29T12:08:14.787Z,1957.50
2018-06-29T12:09:14.805Z,1963.13
2018-06-29T12:10:14.826Z,1957.50
2018-06-29T12:11:14.838Z,1935.00
2018-06-29T12:12:14.855Z,1912.50
2018-06-29T12:13:14.883Z,1906.88
2018-06-29T12:14:14.886Z,1906.88
2018-06-29T12:15:14.904Z,1912.50
2018-06-29T12:16:14.934Z,1901.25
2018-06-29T12:17:14.941Z,1890.00
2018-06-29T12:18:16.011Z,1906.88
2018-06-29T12:19:14.975Z,1923.75
2018-06-29T12:20:14.991Z,1980.00
2018-06-29T12:21:15.007Z,1996.88
2018-06-29T12:22:15.026Z,2030.63
2018-06-29T12:23:15.067Z,2036.25
2018-06-29T12:24:15.061Z,2041.88
2018-06-29T12:25:15.075Z,2053.13
2018-06-29T12:26:15.102Z,2053.13
2018-06-29T12:27:15.113Z,2058.75
2018-06-29T12:28:15.135Z,2047.50
2018-06-29T12:29:15.145Z,2064.38
2018-06-29T12:30:15.163Z,2070.00
2018-06-29T12:31:15.181Z,2075.63
2018-06-29T12:32:15.198Z,2064.38
2018-06-29T12:33:15.215Z,2075.63
2018-06-29T12:34:15.232Z,2086.88
2018-06-29T12:35:15.253Z,2109.38
2018-06-29T12:36:15.288Z,2109.38
2018-06-29T12:37:15.287Z,2120.63
2018-06-29T12:38:15.321Z,2131.88
2018-06-29T12:39:15.320Z,2103.75
2018-06-29T12:40:15.345Z,2098.13
2018-06-29T12:41:15.376Z,2092.50
2018-06-29T12:42:15.378Z,2070.00